Flight Track Log - Related Links

Times and Time Zones

All times are in EST time to prevent confusion due to time zone crossing. See the SKW5550 flight status page for this flight to view local times or setup timezone preferences in your user account.

Time Position Orientation Groundspeed Altitude Reporting Facility
EST Latitude Longitude Course Direction KTS MPH feet Rate Location/Type
Sat 07:53:00 AM 44.2355 -108.7321 158° South  Level FlightAware Approximate
Sat 07:54:00 AM 44.1384 -108.6770 159° South  Level FlightAware Approximate
Sat 07:55:00 AM 44.0407 -108.6237 159° South  Level FlightAware Approximate
Sat 07:56:00 AM 43.9434 -108.5697 157° South  Level FlightAware Approximate
Sat 07:57:00 AM 43.8467 -108.5133 157° South  Level FlightAware Approximate
Sat 07:57:09 AM 44.5408 -108.9914 142° Southeast 199 229 6,300  Level Salt Lake Center
Sat 07:58:00 AM 43.7379 -108.4502 157° South  Level FlightAware Approximate
Sat 07:58:09 AM 44.5933 -108.9656 19° North 198 228 8,500  Level Salt Lake Center
Sat 07:59:00 AM 43.6289 -108.3878 158° South  Level FlightAware Approximate
Sat 07:59:09 AM 44.6367 -108.9194 37° Northeast 225 259 11,700  Level Salt Lake Center
Sat 08:00:00 AM 43.5200 -108.3253 156° South  Level FlightAware Approximate
Sat 08:00:10 AM 44.5781 -108.8858 158° South 257 296 13,700  Level Salt Lake Center
Sat 08:01:00 AM 43.4174 -108.2477 142° Southeast  Level FlightAware Approximate
Sat 08:01:10 AM 44.4958 -108.9039 189° South 294 338 15,000  Level Salt Lake Center
Sat 08:02:00 AM 43.3251 -108.1469 142° Southeast  Level FlightAware Approximate
Sat 08:02:10 AM 44.4056 -108.8444 155° Southeast 351 404 16,900  Level Salt Lake Center
Sat 08:03:11 AM 44.3128 -108.7881 156° South 358 412 18,500 1,636 Climbing Salt Lake Center
Sat 08:04:11 AM 44.2175 -108.7331 158° South 368 423 20,200 1,350 Climbing Salt Lake Center
Sat 08:05:11 AM 44.1233 -108.6647 152° Southeast 381 438 21,200 1,250 Climbing Salt Lake Center
Sat 08:06:11 AM 44.0317 -108.5747 145° Southeast 403 464 22,700 1,438 Climbing Salt Lake Center
Sat 08:07:12 AM 43.9381 -108.4864 146° Southeast 407 468 24,100 1,438 Climbing Salt Lake Center
Sat 08:08:12 AM 43.8253 -108.3800 146° Southeast 410 472 25,600 1,300 Climbing Salt Lake Center
Sat 08:09:12 AM 43.7308 -108.2911 146° Southeast 413 475 26,700 1,000 Climbing Salt Lake Center
Sat 08:10:12 AM 43.6333 -108.2008 146° Southeast 421 484 27,600 893 Climbing Salt Lake Center
Sat 08:11:13 AM 43.5350 -108.1081 146° Southeast 429 494 28,500 843 Climbing Salt Lake Center
Sat 08:12:13 AM 43.4353 -108.0150 146° Southeast 434 499 29,300 850 Climbing Salt Lake Center
Sat 08:13:13 AM 43.3350 -107.9228 146° Southeast 434 499 30,200 843 Climbing Salt Lake Center
Sat 08:14:14 AM 43.2353 -107.8286 145° Southeast 437 503 31,000 397 Climbing Salt Lake Center
Sat 08:15:14 AM 43.1322 -107.7344 146° Southeast 446 513 31,000  Level Salt Lake Center
Sat 08:16:14 AM 43.0244 -107.6367 146° Southeast 461 531 31,000  Level Salt Lake Center
Sat 08:17:14 AM 42.9267 -107.5467 146° Southeast 470 541 31,000  Level Salt Lake Center
Sat 08:18:15 AM 42.8050 -107.4353 146° Southeast 471 542 31,000  Level Salt Lake Center
Sat 08:19:15 AM 42.7019 -107.3411 146° Southeast 468 539 31,000  Level Salt Lake Center
Sat 08:19:50 AM 42.6319 -107.2772 146° Southeast 468 539 31,000  Level Denver Center
Sat 08:20:50 AM 42.5297 -107.1853 146° Southeast 463 533 31,000  Level Denver Center
Sat 08:21:51 AM 42.4300 -107.0958 146° Southeast 452 520 31,000  Level Denver Center
Sat 08:22:51 AM 42.3150 -106.9944 147° Southeast 443 510 31,000  Level Denver Center
Sat 08:23:51 AM 42.2203 -106.9058 145° Southeast 436 502 31,000  Level Denver Center
Sat 08:24:52 AM 42.1242 -106.8172 146° Southeast 436 502 31,000  Level Denver Center
Sat 08:25:52 AM 42.0306 -106.7297 145° Southeast 430 495 31,000  Level Denver Center
Sat 08:26:52 AM 41.9208 -106.6283 145° Southeast 428 493 31,000  Level Denver Center
Sat 08:27:53 AM 41.8269 -106.5417 145° Southeast 429 494 31,000  Level Denver Center
Sat 08:28:53 AM 41.7236 -106.4472 146° Southeast 425 489 31,000  Level Denver Center
Sat 08:29:54 AM 41.6308 -106.3625 146° Southeast 422 486 31,000  Level Denver Center
Sat 08:30:54 AM 41.5394 -106.2786 145° Southeast 418 481 31,000  Level Denver Center
Sat 08:31:54 AM 41.4453 -106.1936 146° Southeast 424 488 31,000  Level Denver Center
Sat 08:32:55 AM 41.3381 -106.0975 146° Southeast 419 482 31,000  Level Denver Center
Sat 08:33:55 AM 41.2447 -106.0119 145° Southeast 425 489 31,000  Level Denver Center
Sat 08:34:55 AM 41.1517 -105.9289 146° Southeast 422 486 31,000  Level Denver Center
Sat 08:35:56 AM 41.0419 -105.8317 146° Southeast 424 488 31,000 -595 Level Denver Center
Sat 08:36:56 AM 40.9486 -105.7483 146° Southeast 421 484 29,800 -1,785 Descending Denver Center
Sat 08:37:57 AM 40.8525 -105.6603 145° Southeast 420 483 27,400 -2,380 Descending Denver Center
Sat 08:38:57 AM 40.7567 -105.5761 146° Southeast 416 479 25,000 -2,400 Descending Denver Center
Sat 08:39:57 AM 40.6628 -105.4928 146° Southeast 408 470 22,600 -2,380 Descending Denver Center
Sat 08:40:58 AM 40.5800 -105.3967 139° Southeast 399 459 20,200 -2,331 Descending Denver Center
Sat 08:41:58 AM 40.5178 -105.2806 125° Southeast 390 449 17,900 -1,686 Descending Denver Center
Sat 08:42:59 AM 40.4683 -105.1525 117° Southeast 374 430 16,800 -1,091 Descending Denver Center
Sat 08:43:59 AM 40.4306 -105.0347 113° Southeast 356 410 15,700 -1,150 Descending Denver Center
Sat 08:44:59 AM 40.3558 -104.9483 139° Southeast 359 413 14,500 -1,537 Descending Denver Center
Sat 08:46:00 AM 40.2797 -104.8653 140° Southeast 357 411 12,600 -1,785 Descending Denver Center
Sat 08:47:00 AM 40.2033 -104.8031 148° Southeast 327 376 10,900 -1,587 Descending Denver Center
Sat 08:48:01 AM 40.1253 -104.7622 158° South 302 348 9,400 -1,289 Descending Denver Center
Sat 08:49:01 AM 40.0567 -104.7264 158° South 271 312 8,300 -950 Descending Denver Center
Sat 08:50:01 AM 39.9983 -104.6983 160° South 218 251 7,500 -942 Descending Denver Center
Sat 08:51:02 AM 39.9469 -104.6953 177° South 186 214 6,400 -942 Descending Denver Center
Sat 08:52:02 AM 39.9050 -104.6958 181° South 156 180 5,600 -545 Descending Denver Center
Sat 08:53:03 AM 39.8764 -104.6958 180° South 129 148 5,300 -295 Descending Denver Center

Login

Don't have an account? Register now (free) for customized features, flight alerts, and more!